createdAt,value
2023-05-07T00:00:41.271Z,97051.31
2023-05-07T00:03:42.955Z,97043.75
2023-05-07T00:06:44.606Z,97058.38
2023-05-07T00:09:46.163Z,97049.78
2023-05-07T00:12:47.803Z,97055.75
2023-05-07T00:15:49.291Z,97037.19
2023-05-07T00:18:51.271Z,97042.88
2023-05-07T00:21:54.559Z,97037.56
2023-05-07T00:24:56.142Z,97041.03
2023-05-07T00:28:03.623Z,97039.63
2023-05-07T00:31:05.238Z,97032.78
2023-05-07T00:34:07.119Z,97036.59
2023-05-07T00:37:09.791Z,97040.31
2023-05-07T00:40:11.848Z,97044.56
2023-05-07T00:43:13.662Z,97038.63
2023-05-07T00:46:16.818Z,97039.44
2023-05-07T00:49:19.355Z,97041.47
2023-05-07T00:52:22.694Z,97038.38
2023-05-07T00:55:24.974Z,97032.25
2023-05-07T00:58:26.671Z,97031.63
2023-05-07T01:01:28.326Z,97040.41
2023-05-07T01:04:29.872Z,97029.00
2023-05-07T01:07:32.931Z,97027.16
2023-05-07T01:10:34.562Z,97026.97
2023-05-07T01:13:37.705Z,97015.94
2023-05-07T01:16:41.579Z,97016.75
2023-05-07T01:19:45.004Z,97020.41
2023-05-07T01:22:46.975Z,97016.47
2023-05-07T01:25:56.109Z,97015.69
2023-05-07T01:29:00.217Z,97021.16
2023-05-07T01:32:03.404Z,97017.63
2023-05-07T01:35:08.366Z,97019.03
2023-05-07T01:38:10.131Z,97013.47
2023-05-07T01:41:12.912Z,97007.16
2023-05-07T01:44:16.229Z,97013.66
2023-05-07T01:47:17.956Z,97014.84
2023-05-07T01:50:20.762Z,97014.84
2023-05-07T01:53:22.236Z,97013.97
2023-05-07T01:56:24.943Z,97010.31
2023-05-07T01:59:26.519Z,97004.13
2023-05-07T02:02:28.144Z,97015.53
2023-05-07T02:05:31.994Z,97010.16
2023-05-07T02:08:38.752Z,97013.22
2023-05-07T02:11:40.611Z,97016.22
2023-05-07T02:14:42.499Z,97019.81
2023-05-07T02:18:05.562Z,97025.00
2023-05-07T02:21:07.248Z,97025.19
2023-05-07T02:24:08.780Z,97024.09
2023-05-07T02:27:10.341Z,97032.88
2023-05-07T02:30:13.328Z,97036.97
2023-05-07T02:33:15.176Z,97016.75
2023-05-07T02:36:17.444Z,97027.13
2023-05-07T02:39:34.367Z,97028.75
2023-05-07T02:42:35.996Z,97022.84
2023-05-07T02:45:38.603Z,97018.47
2023-05-07T02:48:41.554Z,97023.31
2023-05-07T02:51:43.082Z,97024.44
2023-05-07T02:54:50.520Z,97016.63
2023-05-07T02:57:52.080Z,97014.34
2023-05-07T03:00:55.520Z,97018.81
2023-05-07T03:04:08.857Z,97017.63
2023-05-07T03:07:10.466Z,97015.47
2023-05-07T03:10:12.298Z,97015.19
2023-05-07T03:13:13.998Z,97013.25
2023-05-07T03:16:16.217Z,97011.38
2023-05-07T03:19:17.787Z,97008.25
2023-05-07T03:22:19.448Z,97012.34
2023-05-07T03:25:21.541Z,97005.25
2023-05-07T03:28:23.059Z,97015.00
2023-05-07T03:31:32.521Z,97006.59
2023-05-07T03:34:36.126Z,97010.81
2023-05-07T03:37:39.060Z,97011.53
2023-05-07T03:40:41.124Z,97019.66
2023-05-07T03:43:42.868Z,97016.94
2023-05-07T03:46:46.918Z,97018.09
2023-05-07T03:49:49.866Z,97017.56
2023-05-07T03:52:51.692Z,97017.56
2023-05-07T03:55:55.816Z,97029.13
2023-05-07T03:58:57.794Z,97024.88
2023-05-07T04:01:59.556Z,97021.38
2023-05-07T04:05:03.865Z,97027.13
2023-05-07T04:08:06.374Z,97040.00
2023-05-07T04:11:14.694Z,97044.72
2023-05-07T04:14:16.539Z,97041.88
2023-05-07T04:17:18.251Z,97036.59
2023-05-07T04:20:19.829Z,97047.09
2023-05-07T04:23:26.306Z,97041.72
2023-05-07T04:26:29.255Z,97043.66
2023-05-07T04:29:31.531Z,97047.75
2023-05-07T04:32:33.312Z,97047.75
2023-05-07T04:35:35.834Z,97056.50
2023-05-07T04:38:39.613Z,97049.88
2023-05-07T04:41:41.626Z,97045.66
2023-05-07T04:44:46.001Z,97046.56
2023-05-07T04:47:48.043Z,97051.56
2023-05-07T04:50:50.853Z,97059.38
2023-05-07T04:53:53.239Z,97059.59
2023-05-07T04:56:55.220Z,97056.09
2023-05-07T04:59:57.017Z,97062.19
2023-05-07T05:02:58.692Z,97067.22
2023-05-07T05:06:00.839Z,97082.84
2023-05-07T05:09:05.905Z,97075.72
2023-05-07T05:12:10.417Z,97083.34
2023-05-07T05:15:13.875Z,97082.88
2023-05-07T05:18:15.476Z,97086.72
2023-05-07T05:21:17.069Z,97091.28
2023-05-07T05:24:21.369Z,97085.47
2023-05-07T05:27:23.039Z,97082.47
2023-05-07T05:30:24.612Z,97084.16
2023-05-07T05:33:27.007Z,97088.69
2023-05-07T05:36:29.458Z,97091.16
2023-05-07T05:39:32.957Z,97096.72
2023-05-07T05:42:34.609Z,97106.78
2023-05-07T05:45:36.605Z,97106.81
2023-05-07T05:48:38.249Z,97116.09
2023-05-07T05:51:41.230Z,97113.06
2023-05-07T05:54:43.307Z,97123.31
2023-05-07T05:57:45.003Z,97127.22
2023-05-07T06:00:47.300Z,97123.56
2023-05-07T06:03:49.167Z,97125.03
2023-05-07T06:06:51.142Z,97137.50
2023-05-07T06:09:53.146Z,97136.00
2023-05-07T06:12:55.453Z,97141.31
2023-05-07T06:15:57.357Z,97139.13
2023-05-07T06:18:58.860Z,97142.16
2023-05-07T06:22:02.329Z,97140.94
2023-05-07T06:25:05.327Z,97136.91
2023-05-07T06:28:07.045Z,97140.53
2023-05-07T06:31:18.608Z,97141.34
2023-05-07T06:34:26.511Z,97140.25
2023-05-07T06:37:28.158Z,97147.34
2023-05-07T06:40:38.556Z,97135.41
2023-05-07T06:43:40.441Z,97145.72
2023-05-07T06:47:00.746Z,97149.03
2023-05-07T06:50:02.877Z,97137.81
2023-05-07T06:53:07.634Z,97139.69
2023-05-07T06:56:09.350Z,97143.16
2023-05-07T06:59:11.837Z,97133.03
2023-05-07T07:02:17.699Z,97137.91
2023-05-07T07:05:20.399Z,97138.31
2023-05-07T07:08:23.273Z,97134.25
2023-05-07T07:11:25.790Z,97142.84
2023-05-07T07:14:27.463Z,97141.59
2023-05-07T07:17:29.875Z,97139.41
2023-05-07T07:20:31.652Z,97138.88
2023-05-07T07:23:33.748Z,97136.44
2023-05-07T07:26:35.656Z,97137.22
2023-05-07T07:29:37.533Z,97136.50
2023-05-07T07:32:39.283Z,97125.97
2023-05-07T07:35:40.935Z,97121.72
2023-05-07T07:38:42.692Z,97123.94
2023-05-07T07:41:44.535Z,97117.84
2023-05-07T07:44:47.184Z,97126.50
2023-05-07T07:47:51.233Z,97121.88
2023-05-07T07:50:53.227Z,97126.75
2023-05-07T07:53:55.081Z,97129.34
2023-05-07T07:56:57.351Z,97131.03
2023-05-07T07:59:59.869Z,97131.91
2023-05-07T08:03:04.819Z,97124.72
2023-05-07T08:06:11.932Z,97132.44
2023-05-07T08:09:13.982Z,97128.78
2023-05-07T08:12:17.015Z,97115.75
2023-05-07T08:15:18.972Z,97123.91
2023-05-07T08:18:20.728Z,97125.09
2023-05-07T08:21:23.650Z,97112.06
2023-05-07T08:24:25.194Z,97118.78
2023-05-07T08:27:27.281Z,97120.88
2023-05-07T08:30:28.868Z,97130.19
2023-05-07T08:33:30.674Z,97134.03
2023-05-07T08:36:32.283Z,97123.91
2023-05-07T08:39:33.898Z,97123.34
2023-05-07T08:42:38.745Z,97124.72
2023-05-07T08:45:41.295Z,97134.56
2023-05-07T08:48:45.577Z,97132.06
2023-05-07T08:51:50.205Z,97135.13
2023-05-07T08:54:51.723Z,97139.59
2023-05-07T08:57:54.018Z,97134.88
2023-05-07T09:00:56.694Z,97139.38
2023-05-07T09:03:59.283Z,97123.03
2023-05-07T09:07:06.308Z,97127.38
2023-05-07T09:10:11.675Z,97122.41
2023-05-07T09:13:15.690Z,97110.94
2023-05-07T09:16:17.911Z,97121.22
2023-05-07T09:19:25.452Z,97120.38
2023-05-07T09:22:32.872Z,97125.38
2023-05-07T09:25:39.031Z,97130.28
2023-05-07T09:28:48.054Z,97130.66
2023-05-07T09:31:50.719Z,97135.78
2023-05-07T09:34:53.661Z,97145.81
2023-05-07T09:38:03.596Z,97133.28
2023-05-07T09:41:10.177Z,97145.97
2023-05-07T09:44:33.343Z,97137.31
2023-05-07T09:47:40.100Z,97140.50
2023-05-07T09:50:50.559Z,97142.53
2023-05-07T09:53:55.081Z,97141.81
2023-05-07T09:56:59.591Z,97151.00
2023-05-07T10:00:07.191Z,97139.13
2023-05-07T10:03:23.526Z,97155.25
2023-05-07T10:06:31.313Z,97169.56
2023-05-07T10:09:39.363Z,97165.88
2023-05-07T10:12:43.160Z,97184.16
2023-05-07T10:15:53.856Z,97182.50
2023-05-07T10:18:58.011Z,97193.50
2023-05-07T10:22:06.869Z,97198.13
2023-05-07T10:25:21.752Z,97206.66
2023-05-07T10:28:26.676Z,97204.72
2023-05-07T10:31:56.848Z,97205.19
2023-05-07T10:35:03.124Z,97207.59
2023-05-07T10:38:05.924Z,97208.81
2023-05-07T10:41:11.544Z,97206.34
2023-05-07T10:44:32.010Z,97199.09
2023-05-07T10:51:28.865Z,97205.78
2023-05-07T10:54:39.830Z,97210.31
2023-05-07T10:57:45.926Z,97218.78
2023-05-07T11:01:03.523Z,97206.75
2023-05-07T11:04:15.960Z,97208.44
2023-05-07T11:07:45.530Z,97203.00
2023-05-07T11:11:15.898Z,97201.50
2023-05-07T11:14:41.121Z,97204.38
2023-05-07T11:17:56.551Z,97207.44
2023-05-07T11:21:00.834Z,97202.94
2023-05-07T11:24:23.259Z,97207.56
2023-05-07T11:27:35.047Z,97216.28
2023-05-07T11:30:36.784Z,97214.47
2023-05-07T11:33:40.409Z,97214.94
2023-05-07T11:36:46.327Z,97223.69
2023-05-07T11:39:55.501Z,97223.28
2023-05-07T11:42:56.991Z,97219.28
2023-05-07T11:46:08.069Z,97223.16
2023-05-07T11:49:09.876Z,97217.09
2023-05-07T11:52:14.543Z,97218.72
2023-05-07T11:55:19.581Z,97219.03
2023-05-07T11:58:26.719Z,97218.84
2023-05-07T12:01:28.297Z,97213.03
2023-05-07T12:04:31.454Z,97217.03
2023-05-07T12:07:35.244Z,97213.47
2023-05-07T12:10:41.475Z,97218.25
2023-05-07T12:13:43.006Z,97211.41
2023-05-07T12:16:46.002Z,97217.31
2023-05-07T12:19:48.038Z,97219.22
2023-05-07T12:22:51.180Z,97208.91
2023-05-07T12:25:52.804Z,97212.81
2023-05-07T12:28:54.401Z,97211.72
2023-05-07T12:31:55.970Z,97204.19
2023-05-07T12:34:57.500Z,97219.72
2023-05-07T12:38:05.060Z,97218.72
2023-05-07T12:41:08.412Z,97213.88
2023-05-07T12:44:09.902Z,97219.28
2023-05-07T12:47:11.580Z,97221.59
2023-05-07T12:50:15.075Z,97212.91
2023-05-07T12:53:16.806Z,97212.94
2023-05-07T12:56:18.338Z,97216.19
2023-05-07T12:59:19.861Z,97218.00
2023-05-07T13:02:21.453Z,97223.41
2023-05-07T13:05:22.931Z,97217.97
2023-05-07T13:08:45.460Z,97218.91
2023-05-07T13:11:46.928Z,97219.59
2023-05-07T13:14:48.391Z,97223.06
2023-05-07T13:17:50.037Z,97214.13
2023-05-07T13:20:52.155Z,97227.44
2023-05-07T13:23:53.830Z,97227.03
2023-05-07T13:26:55.738Z,97232.66
2023-05-07T13:29:57.629Z,97238.25
2023-05-07T13:32:59.210Z,97238.38
2023-05-07T13:36:01.707Z,97246.41
2023-05-07T13:39:04.524Z,97252.97
2023-05-07T13:42:06.181Z,97249.44
2023-05-07T13:45:08.480Z,97245.69
2023-05-07T13:48:09.996Z,97239.56
2023-05-07T13:51:11.737Z,97235.56
2023-05-07T13:54:13.234Z,97228.22
2023-05-07T13:57:14.790Z,97227.75
2023-05-07T14:00:17.284Z,97214.66
2023-05-07T14:03:20.631Z,97209.34
2023-05-07T14:06:22.856Z,97205.56
2023-05-07T14:09:24.780Z,97207.34
2023-05-07T14:12:26.496Z,97198.66
2023-05-07T14:15:28.034Z,97208.94
2023-05-07T14:18:29.995Z,97203.00
2023-05-07T14:21:31.895Z,97197.31
2023-05-07T14:24:38.604Z,97193.84
2023-05-07T14:27:40.609Z,97190.53
2023-05-07T14:30:42.158Z,97201.66
2023-05-07T14:33:43.686Z,97190.97
2023-05-07T14:36:45.242Z,97195.31
2023-05-07T14:39:49.948Z,97192.78
2023-05-07T14:42:52.020Z,97196.06
2023-05-07T14:45:53.619Z,97202.31
2023-05-07T14:48:55.469Z,97196.94
2023-05-07T14:52:00.297Z,97199.28
2023-05-07T14:55:01.737Z,97204.63
2023-05-07T14:58:03.266Z,97200.88
2023-05-07T15:01:04.936Z,97200.44
2023-05-07T15:04:06.977Z,97202.41
2023-05-07T15:07:08.478Z,97199.50
2023-05-07T15:10:10.269Z,97196.88
2023-05-07T15:13:15.555Z,97206.22
2023-05-07T15:16:17.784Z,97201.84
2023-05-07T15:19:19.363Z,97214.28
2023-05-07T15:22:22.441Z,97216.41
2023-05-07T15:25:24.225Z,97205.59
2023-05-07T15:28:26.058Z,97218.88
2023-05-07T15:31:31.149Z,97219.78
2023-05-07T15:34:32.693Z,97210.38
2023-05-07T15:37:34.748Z,97214.53
2023-05-07T15:40:38.650Z,97215.19
2023-05-07T15:43:46.808Z,97217.97
2023-05-07T15:46:48.362Z,97206.56
2023-05-07T15:49:49.854Z,97211.34
2023-05-07T15:52:51.415Z,97214.22
2023-05-07T15:55:52.943Z,97210.09
2023-05-07T15:58:54.481Z,97208.16
2023-05-07T16:01:56.028Z,97215.22
2023-05-07T16:04:57.539Z,97216.59
2023-05-07T16:08:00.134Z,97218.69
2023-05-07T16:11:01.651Z,97224.72
2023-05-07T16:14:03.181Z,97211.72
2023-05-07T16:17:04.764Z,97211.81
2023-05-07T16:20:08.676Z,97217.53
2023-05-07T16:23:10.570Z,97220.41
2023-05-07T16:26:14.137Z,97223.56
2023-05-07T16:29:23.170Z,97218.19
2023-05-07T16:32:24.919Z,97217.81
2023-05-07T16:35:26.775Z,97222.53
2023-05-07T16:38:31.211Z,97218.97
2023-05-07T16:41:32.999Z,97224.38
2023-05-07T16:44:34.456Z,97222.75
2023-05-07T16:47:36.285Z,97223.81
2023-05-07T16:50:38.212Z,97230.44
2023-05-07T16:53:39.748Z,97235.25
2023-05-07T16:56:42.414Z,97236.59
2023-05-07T16:59:43.947Z,97239.00
2023-05-07T17:02:46.815Z,97240.19
2023-05-07T17:05:48.509Z,97249.22
2023-05-07T17:08:51.468Z,97251.78
2023-05-07T17:11:53.030Z,97245.84
2023-05-07T17:14:54.492Z,97255.91
2023-05-07T17:17:56.219Z,97259.22
2023-05-07T17:20:57.829Z,97262.63
2023-05-07T17:23:59.370Z,97270.47
2023-05-07T17:27:00.927Z,97274.75
2023-05-07T17:30:02.979Z,97277.97
2023-05-07T17:33:19.315Z,97279.47
2023-05-07T17:36:22.213Z,97288.28
2023-05-07T17:39:24.496Z,97290.75
2023-05-07T17:42:26.151Z,97297.81
2023-05-07T17:45:27.622Z,97297.19
2023-05-07T17:48:29.335Z,97305.13
2023-05-07T17:51:36.263Z,97310.47
2023-05-07T17:54:43.887Z,97310.09
2023-05-07T17:57:45.431Z,97318.47
2023-05-07T18:00:49.373Z,97316.81
2023-05-07T18:03:51.381Z,97310.94
2023-05-07T18:06:53.363Z,97318.66
2023-05-07T18:09:54.979Z,97327.50
2023-05-07T18:12:56.639Z,97332.25
2023-05-07T18:15:58.128Z,97331.72
2023-05-07T18:19:00.720Z,97329.16
2023-05-07T18:22:03.059Z,97331.44
2023-05-07T18:25:05.002Z,97334.03
2023-05-07T18:28:06.506Z,97331.44
2023-05-07T18:31:08.098Z,97340.81
2023-05-07T18:34:10.430Z,97338.88
2023-05-07T18:37:11.925Z,97338.09
2023-05-07T18:40:13.811Z,97337.72
2023-05-07T18:43:15.602Z,97344.75
2023-05-07T18:46:17.053Z,97343.53
2023-05-07T18:49:18.795Z,97333.69
2023-05-07T18:52:21.975Z,97335.59
2023-05-07T18:55:23.547Z,97337.06
2023-05-07T18:58:25.102Z,97341.22
2023-05-07T19:01:26.744Z,97343.69
2023-05-07T19:04:29.951Z,97354.41
2023-05-07T19:07:31.757Z,97352.63
2023-05-07T19:10:33.278Z,97352.84
2023-05-07T19:13:34.817Z,97363.53
2023-05-07T19:16:36.976Z,97362.31
2023-05-07T19:19:38.634Z,97372.00
2023-05-07T19:22:42.740Z,97376.53
2023-05-07T19:25:44.249Z,97373.47
2023-05-07T19:28:48.462Z,97390.06
2023-05-07T19:31:58.057Z,97396.03
2023-05-07T19:34:59.678Z,97398.31
2023-05-07T19:38:02.021Z,97396.72
2023-05-07T19:41:03.560Z,97401.03
2023-05-07T19:44:05.066Z,97395.72
2023-05-07T19:47:06.826Z,97408.25
2023-05-07T19:50:08.770Z,97407.44
2023-05-07T19:53:10.835Z,97407.28
2023-05-07T19:56:12.691Z,97414.66
2023-05-07T19:59:14.345Z,97414.84
2023-05-07T20:02:16.547Z,97417.06
2023-05-07T20:05:18.158Z,97416.28
2023-05-07T20:08:19.737Z,97413.84
2023-05-07T20:11:21.731Z,97420.19
2023-05-07T20:14:23.314Z,97424.28
2023-05-07T20:17:24.879Z,97430.06
2023-05-07T20:20:26.326Z,97433.78
2023-05-07T20:23:27.876Z,97440.53
2023-05-07T20:26:29.379Z,97436.03
2023-05-07T20:29:31.145Z,97446.50
2023-05-07T20:32:32.898Z,97447.94
2023-05-07T20:35:34.446Z,97448.13
2023-05-07T20:38:36.023Z,97452.47
2023-05-07T20:41:37.697Z,97453.88
2023-05-07T20:44:39.156Z,97457.34
2023-05-07T20:47:41.184Z,97459.81
2023-05-07T20:50:42.695Z,97451.44
2023-05-07T20:53:46.138Z,97458.59
2023-05-07T20:56:49.156Z,97463.72
2023-05-07T20:59:50.788Z,97463.09
2023-05-07T21:02:53.273Z,97469.28
2023-05-07T21:05:56.566Z,97466.81
2023-05-07T21:08:58.042Z,97468.84
2023-05-07T21:11:59.601Z,97467.81
2023-05-07T21:15:01.112Z,97464.34
2023-05-07T21:18:02.846Z,97474.16
2023-05-07T21:21:09.158Z,97477.88
2023-05-07T21:24:11.416Z,97482.19
2023-05-07T21:27:12.972Z,97482.78
2023-05-07T21:30:15.256Z,97477.03
2023-05-07T21:33:16.948Z,97482.16
2023-05-07T21:36:18.877Z,97480.28
2023-05-07T21:39:22.440Z,97482.56
2023-05-07T21:42:25.226Z,97483.59
2023-05-07T21:45:29.830Z,97484.41
2023-05-07T21:48:31.337Z,97489.31
2023-05-07T21:51:34.462Z,97490.78
2023-05-07T21:54:35.934Z,97492.59
2023-05-07T21:57:37.749Z,97498.13
2023-05-07T22:00:39.315Z,97493.66
2023-05-07T22:03:41.052Z,97494.47
2023-05-07T22:06:42.605Z,97490.38
2023-05-07T22:09:44.100Z,97495.06
2023-05-07T22:12:45.642Z,97497.13
2023-05-07T22:15:56.775Z,97491.78
2023-05-07T22:18:59.324Z,97495.25
2023-05-07T22:22:00.775Z,97495.03
2023-05-07T22:25:02.327Z,97498.31
2023-05-07T22:28:04.004Z,97501.00
2023-05-07T22:31:05.592Z,97498.28
2023-05-07T22:34:07.013Z,97498.88
2023-05-07T22:37:08.632Z,97496.22
2023-05-07T22:40:10.767Z,97506.88
2023-05-07T22:43:12.462Z,97500.69
2023-05-07T22:46:14.004Z,97507.25
2023-05-07T22:49:15.535Z,97503.97
2023-05-07T22:52:17.304Z,97502.56
2023-05-07T22:55:18.867Z,97509.66
2023-05-07T22:58:20.450Z,97503.94
2023-05-07T23:01:22.026Z,97504.34
2023-05-07T23:04:23.556Z,97504.72
2023-05-07T23:07:25.043Z,97508.38
2023-05-07T23:10:26.567Z,97501.81
2023-05-07T23:13:28.246Z,97495.91
2023-05-07T23:16:30.217Z,97502.44
2023-05-07T23:19:31.785Z,97499.97
2023-05-07T23:22:33.267Z,97502.63
2023-05-07T23:25:34.742Z,97506.16
2023-05-07T23:28:36.192Z,97501.44
2023-05-07T23:31:37.795Z,97498.16
2023-05-07T23:34:39.279Z,97498.75
2023-05-07T23:37:41.247Z,97498.50
2023-05-07T23:40:42.821Z,97495.66
2023-05-07T23:43:44.287Z,97492.13
2023-05-07T23:46:46.161Z,97489.03
2023-05-07T23:49:48.050Z,97485.34
2023-05-07T23:52:49.562Z,97491.50
2023-05-07T23:55:51.104Z,97499.13
2023-05-07T23:58:52.611Z,97498.69
